»·PEaware :: ASA1057 KSFO-KPDX

ASA1057 :: KSFO-KPDX

FLIGHT INFORMATION

Flight Status: Arrived
Operator:
Alaska Airlines
More flights by this operator :: More flights under this callsign
Pilot: Anonymous 41672 (41672)
Aircraft: BOEING 737-600
(B736)
More flights by this aircraft type
Origin: KSFO San Francisco Intl
United States
Destination: KPDX Portland Intl
United States
More flights between these airports :: More routes between these airports
Route: TRUKN2 GRTFL MACHU TMBRS2
File this flight plan on PilotEdge
Remarks:
Altitude:
(Current/Filed)
38,000ft
Speed:
(Current/Filed)
460kts
Departed: 19-Jun-23 07:44 PM
Arrived: 19-Jun-23 09:02 PM
Distance/Time
Traveled:
478nm/1:18
Distance/Time
To Go:
Arrived

Flight Plot

Page will automatically refresh every two minutes.


Map Options




Map Legend


Flown Route
Filed Route
Departure Airport
Arrival Airport
Navaid (VOR, NDB)
Fix

Horizontal Profiles

Position Reports

Time Latitude Longitude Heading Altitude Ground
Speed
19-Jun-23 19:16 37.618339 -122.382022 139 16ft 0kts
19-Jun-23 19:17 37.618339 -122.382022 139 16ft 0kts
19-Jun-23 19:18 37.618339 -122.382022 139 16ft 0kts
19-Jun-23 19:19 37.618339 -122.382022 139 16ft 0kts
19-Jun-23 19:20 37.618339 -122.382022 139 16ft 0kts
19-Jun-23 19:21 37.618339 -122.382022 139 16ft 0kts
19-Jun-23 19:22 37.618339 -122.382022 139 16ft 0kts
19-Jun-23 19:23 37.618339 -122.382022 139 26ft 0kts
19-Jun-23 19:24 37.618339 -122.382022 139 26ft 0kts
19-Jun-23 19:25 37.618339 -122.382022 139 26ft 0kts
19-Jun-23 19:26 37.618339 -122.382022 139 26ft 0kts
19-Jun-23 19:27 37.618339 -122.382022 139 26ft 0kts
19-Jun-23 19:28 37.618339 -122.382022 0 18ft 0kts
19-Jun-23 19:31 37.618339 -122.382022 139 16ft 0kts
19-Jun-23 19:32 37.618339 -122.382022 139 16ft 0kts
19-Jun-23 19:33 37.618339 -122.382022 139 16ft 0kts
19-Jun-23 19:34 37.618339 -122.382022 139 16ft 0kts
19-Jun-23 19:35 37.618339 -122.382022 139 16ft 0kts
19-Jun-23 19:36 37.618711 -122.382592 31 17ft 0kts
19-Jun-23 19:37 37.618711 -122.382592 31 17ft 0kts
19-Jun-23 19:38 37.618711 -122.382592 31 17ft 0kts
19-Jun-23 19:39 37.618729 -122.379831 117 20ft 24kts
19-Jun-23 19:40 37.615017 -122.369934 122 22ft 35kts
19-Jun-23 19:41 37.610517 -122.360076 97 20ft 21kts
19-Jun-23 19:42 37.611056 -122.358994 26 18ft 0kts
19-Jun-23 19:43 37.614915 -122.366092 295 25ft 115kts
19-Jun-23 19:44 37.646667 -122.402665 354 3427ft 187kts
19-Jun-23 19:45 37.672545 -122.342719 69 6922ft 231kts
19-Jun-23 19:46 37.702004 -122.255912 61 9738ft 302kts
19-Jun-23 19:47 37.775940 -122.215437 352 12605ft 332kts
19-Jun-23 19:48 37.871436 -122.218586 351 16140ft 355kts
19-Jun-23 19:49 37.973300 -122.221293 349 19272ft 377kts
19-Jun-23 19:50 38.081017 -122.224085 348 22041ft 399kts
19-Jun-23 19:51 38.194932 -122.227022 348 24555ft 419kts
19-Jun-23 19:52 38.313977 -122.230066 347 26791ft 437kts
19-Jun-23 19:53 38.436516 -122.238566 343 28880ft 446kts
19-Jun-23 19:54 38.562892 -122.252993 343 30613ft 463kts
19-Jun-23 19:55 38.693120 -122.266647 343 32141ft 476kts
19-Jun-23 19:56 38.824574 -122.280221 343 34130ft 473kts
19-Jun-23 19:57 38.954809 -122.293848 343 35766ft 467kts
19-Jun-23 19:58 39.084564 -122.307752 343 37155ft 466kts
19-Jun-23 19:59 39.213336 -122.321291 344 38044ft 467kts
19-Jun-23 20:00 39.341491 -122.334783 344 38031ft 458kts
19-Jun-23 20:01 39.468201 -122.348350 344 38037ft 456kts
19-Jun-23 20:02 39.595269 -122.362015 345 38044ft 460kts
19-Jun-23 20:03 39.723649 -122.375831 345 38046ft 466kts
19-Jun-23 20:04 39.853088 -122.389742 346 38046ft 466kts
19-Jun-23 20:05 39.982304 -122.403705 346 38055ft 464kts
19-Jun-23 20:06 40.110617 -122.417657 346 38061ft 463kts
19-Jun-23 20:07 40.239077 -122.431683 346 38059ft 462kts
19-Jun-23 20:08 40.367104 -122.445710 346 38075ft 463kts
19-Jun-23 20:09 40.495819 -122.459859 347 38067ft 464kts
19-Jun-23 20:10 40.624246 -122.474031 346 38066ft 464kts
19-Jun-23 20:11 40.752919 -122.488267 346 38096ft 462kts
19-Jun-23 20:12 40.880884 -122.502506 346 38100ft 461kts
19-Jun-23 20:13 41.008490 -122.516753 346 38124ft 461kts
19-Jun-23 20:15 41.136819 -122.531152 346 38141ft 463kts
19-Jun-23 20:16 41.265123 -122.545583 346 38169ft 464kts
19-Jun-23 20:17 41.394237 -122.560170 346 38162ft 465kts
19-Jun-23 20:18 41.522793 -122.574743 346 38161ft 464kts
19-Jun-23 20:19 41.651855 -122.583722 349 38169ft 463kts
19-Jun-23 20:20 41.781737 -122.591841 348 38173ft 469kts
19-Jun-23 20:21 41.912325 -122.600477 348 38148ft 470kts
19-Jun-23 20:22 42.041525 -122.608996 348 38173ft 463kts
19-Jun-23 20:23 42.169746 -122.617551 348 38187ft 461kts
19-Jun-23 20:24 42.297633 -122.626068 348 38187ft 460kts
19-Jun-23 20:25 42.425522 -122.634621 348 38185ft 461kts
19-Jun-23 20:26 42.553699 -122.643231 349 38179ft 461kts
19-Jun-23 20:27 42.681959 -122.651874 349 38175ft 462kts
19-Jun-23 20:28 42.810219 -122.660556 349 38191ft 461kts
19-Jun-23 20:29 42.938769 -122.669296 349 38188ft 462kts
19-Jun-23 20:30 43.066780 -122.678032 350 38185ft 462kts
19-Jun-23 20:31 43.195400 -122.686854 350 38186ft 462kts
19-Jun-23 20:32 43.323800 -122.695699 350 38191ft 463kts
19-Jun-23 20:33 43.452851 -122.704607 350 38188ft 463kts
19-Jun-23 20:34 43.581372 -122.713462 351 38177ft 462kts
19-Jun-23 20:35 43.709841 -122.722391 351 37919ft 467kts
19-Jun-23 20:36 43.839350 -122.731409 350 35140ft 469kts
19-Jun-23 20:37 43.969869 -122.740507 351 32198ft 462kts
19-Jun-23 20:38 44.095735 -122.749352 352 29694ft 444kts
19-Jun-23 20:39 44.216229 -122.748949 0 27316ft 424kts
19-Jun-23 20:40 44.331132 -122.735381 1 25087ft 405kts
19-Jun-23 20:41 44.441672 -122.724357 1 22873ft 389kts
19-Jun-23 20:41 44.529498 -122.715664 1 21202ft 373kts
19-Jun-23 20:43 44.647605 -122.703881 2 18968ft 356kts
19-Jun-23 20:44 44.744605 -122.694123 2 17078ft 342kts
19-Jun-23 20:45 44.838468 -122.684673 2 15265ft 334kts
19-Jun-23 20:46 44.929942 -122.675459 2 13756ft 321kts
19-Jun-23 20:46 45.001719 -122.668191 1 12817ft 304kts
19-Jun-23 20:47 45.084994 -122.659739 1 11453ft 297kts
19-Jun-23 20:49 45.180286 -122.650028 1 10065ft 284kts
19-Jun-23 20:50 45.258033 -122.646927 338 8823ft 271kts
19-Jun-23 20:51 45.326380 -122.685168 336 7880ft 262kts
19-Jun-23 20:51 45.383096 -122.716222 336 7084ft 262kts
19-Jun-23 20:52 45.450589 -122.753288 337 6097ft 258kts
19-Jun-23 20:53 45.515759 -122.789152 337 5396ft 235kts
19-Jun-23 20:54 45.573410 -122.821586 329 4486ft 225kts
19-Jun-23 20:55 45.614374 -122.883318 349 3442ft 221kts
19-Jun-23 20:56 45.658674 -122.833852 87 2983ft 220kts
19-Jun-23 20:57 45.646306 -122.753071 119 2282ft 190kts
19-Jun-23 20:58 45.623993 -122.695406 119 1268ft 145kts
19-Jun-23 20:59 45.606233 -122.649912 119 526ft 130kts
19-Jun-23 21:00 45.590222 -122.608785 118 38ft 60kts
19-Jun-23 21:01 45.589469 -122.603686 113 36ft 12kts
19-Jun-23 21:02 45.588866 -122.599588 53 39ft 3kts
19-Jun-23 21:03 45.589488 -122.598877 41 37ft 0kts
19-Jun-23 21:04 45.589488 -122.598877 41 37ft 0kts
19-Jun-23 21:05 45.589488 -122.598877 41 37ft 0kts
19-Jun-23 21:06 45.589488 -122.598877 41 37ft 0kts
19-Jun-23 21:07 45.589488 -122.598877 41 37ft 0kts
19-Jun-23 21:08 45.589488 -122.598877 41 37ft 0kts

Navigation Log

Ident Type
Flight plan parsing failed, navigation log unavailable